Terminal Aerodrome Forecast
Issued by NWS Cleveland, OH

Home | Current Version | Previous Version | Text Only | Print | Product List | Glossary On
Versions: 1 2 3 4 5 6 7 8 9 10 11 12 13 14 15 16 17 18 19 20 21 22 23 24 25 26 27 28 29 30
000
FTUS41 KCLE 151100 CCA
TAFCLE
TAF COR
KCLE 151132Z 1512/1618 34011KT 2SM -SN BR SCT004 OVC010
      TEMPO 1512/1513 1/2SM SN FZFG OVC004
     FM151300 33014G20KT 6SM -SN BR OVC015
      TEMPO 1513/1514 4SM -SHSN OVC008
     FM151400 32014G22KT P6SM OVC015
     FM151800 32018G28KT P6SM OVC025
      TEMPO 1518/1522 5SM -SHSN
     FM152200 34014G20KT P6SM SCT025 BKN045
      TEMPO 1522/1602 5SM -SHSN
     FM160200 34011KT P6SM BKN045
     FM160600 33004KT P6SM SCT250=

USA.gov is the U.S. government's official web portal to all federal, state and local government web resources and services.